sensor_id;sensor_type;location;lat;lon;timestamp;pressure;altitude;pressure_sealevel;temperature;humidity
13581;BME280;6861;46.170;7.222;2023-02-28T00:01:28;96073.31;;;3.54;47.87
13581;BME280;6861;46.170;7.222;2023-02-28T00:03:56;96075.91;;;3.54;47.35
13581;BME280;6861;46.170;7.222;2023-02-28T00:06:25;96072.84;;;3.45;47.33
13581;BME280;6861;46.170;7.222;2023-02-28T00:08:53;96076.06;;;3.41;48.00
13581;BME280;6861;46.170;7.222;2023-02-28T00:11:22;96071.34;;;3.38;47.57
13581;BME280;6861;46.170;7.222;2023-02-28T00:13:50;96074.50;;;3.40;47.97
13581;BME280;6861;46.170;7.222;2023-02-28T00:16:21;96080.88;;;3.37;47.85
13581;BME280;6861;46.170;7.222;2023-02-28T00:18:50;96076.94;;;3.35;47.56
13581;BME280;6861;46.170;7.222;2023-02-28T00:21:18;96079.75;;;3.33;47.74
13581;BME280;6861;46.170;7.222;2023-02-28T00:23:47;96080.53;;;3.34;47.30
13581;BME280;6861;46.170;7.222;2023-02-28T00:26:15;96086.84;;;3.38;47.36
13581;BME280;6861;46.170;7.222;2023-02-28T00:28:46;96080.09;;;3.37;47.24
13581;BME280;6861;46.170;7.222;2023-02-28T00:31:14;96087.66;;;3.38;47.95
13581;BME280;6861;46.170;7.222;2023-02-28T00:33:44;96082.13;;;3.35;47.52
13581;BME280;6861;46.170;7.222;2023-02-28T00:36:12;96090.88;;;3.34;47.21
13581;BME280;6861;46.170;7.222;2023-02-28T00:38:40;96091.31;;;3.31;47.66
13581;BME280;6861;46.170;7.222;2023-02-28T00:41:09;96078.22;;;3.25;48.37
13581;BME280;6861;46.170;7.222;2023-02-28T00:43:38;96083.84;;;3.22;47.63
13581;BME280;6861;46.170;7.222;2023-02-28T00:46:07;96087.84;;;3.18;48.62
13581;BME280;6861;46.170;7.222;2023-02-28T00:48:35;96086.28;;;3.17;48.40
13581;BME280;6861;46.170;7.222;2023-02-28T00:51:05;96086.84;;;3.19;48.47
13581;BME280;6861;46.170;7.222;2023-02-28T00:53:33;96079.09;;;3.19;47.89
13581;BME280;6861;46.170;7.222;2023-02-28T00:56:01;96078.94;;;3.14;48.61
13581;BME280;6861;46.170;7.222;2023-02-28T01:06:06;96084.69;;;3.16;47.76
13581;BME280;6861;46.170;7.222;2023-02-28T01:08:35;96090.59;;;3.23;47.73
13581;BME280;6861;46.170;7.222;2023-02-28T01:11:10;96085.28;;;3.37;47.98
13581;BME280;6861;46.170;7.222;2023-02-28T01:13:38;96088.69;;;3.49;47.63
13581;BME280;6861;46.170;7.222;2023-02-28T01:16:06;96088.97;;;3.59;47.66
13581;BME280;6861;46.170;7.222;2023-02-28T01:18:35;96086.16;;;3.60;48.37
13581;BME280;6861;46.170;7.222;2023-02-28T01:21:06;96090.19;;;3.56;48.51
13581;BME280;6861;46.170;7.222;2023-02-28T01:23:34;96083.69;;;3.36;48.86
13581;BME280;6861;46.170;7.222;2023-02-28T01:26:06;96081.53;;;3.14;48.37
13581;BME280;6861;46.170;7.222;2023-02-28T01:28:35;96083.25;;;3.02;49.27
13581;BME280;6861;46.170;7.222;2023-02-28T01:31:04;96080.94;;;2.94;49.52
13581;BME280;6861;46.170;7.222;2023-02-28T01:33:33;96077.19;;;2.90;49.25
13581;BME280;6861;46.170;7.222;2023-02-28T01:36:02;96081.84;;;2.81;49.72
13581;BME280;6861;46.170;7.222;2023-02-28T01:38:33;96078.31;;;2.76;50.45
13581;BME280;6861;46.170;7.222;2023-02-28T01:41:02;96086.69;;;2.71;50.18
13581;BME280;6861;46.170;7.222;2023-02-28T01:43:35;96088.34;;;2.66;49.57
13581;BME280;6861;46.170;7.222;2023-02-28T01:46:20;96081.22;;;2.61;49.51
13581;BME280;6861;46.170;7.222;2023-02-28T01:48:51;96082.47;;;2.58;50.16
13581;BME280;6861;46.170;7.222;2023-02-28T01:51:23;96083.59;;;2.62;49.91
13581;BME280;6861;46.170;7.222;2023-02-28T01:53:59;96074.00;;;2.70;50.25
13581;BME280;6861;46.170;7.222;2023-02-28T01:56:30;96076.16;;;2.73;49.74
13581;BME280;6861;46.170;7.222;2023-02-28T01:59:01;96077.31;;;2.77;49.89
13581;BME280;6861;46.170;7.222;2023-02-28T02:01:30;96071.13;;;2.78;49.89
13581;BME280;6861;46.170;7.222;2023-02-28T02:04:01;96072.72;;;2.79;49.95
13581;BME280;6861;46.170;7.222;2023-02-28T02:06:34;96061.13;;;2.63;50.25
13581;BME280;6861;46.170;7.222;2023-02-28T02:09:05;96063.00;;;2.56;50.01
13581;BME280;6861;46.170;7.222;2023-02-28T02:11:34;96060.31;;;2.44;50.40
13581;BME280;6861;46.170;7.222;2023-02-28T02:14:16;96072.28;;;2.39;50.82
13581;BME280;6861;46.170;7.222;2023-02-28T02:17:02;96057.63;;;2.33;50.67
13581;BME280;6861;46.170;7.222;2023-02-28T02:23:07;96058.41;;;2.33;51.13
13581;BME280;6861;46.170;7.222;2023-02-28T02:25:43;96059.16;;;2.40;50.89
13581;BME280;6861;46.170;7.222;2023-02-28T02:37:08;96067.59;;;2.54;50.78
13581;BME280;6861;46.170;7.222;2023-02-28T02:39:45;96059.06;;;2.53;50.14
13581;BME280;6861;46.170;7.222;2023-02-28T02:42:21;96047.72;;;2.54;51.38
13581;BME280;6861;46.170;7.222;2023-02-28T02:44:58;96054.47;;;2.55;51.00
13581;BME280;6861;46.170;7.222;2023-02-28T02:47:30;96046.56;;;2.50;51.38
13581;BME280;6861;46.170;7.222;2023-02-28T02:50:03;96054.56;;;2.42;51.45
13581;BME280;6861;46.170;7.222;2023-02-28T02:52:35;96060.75;;;2.41;51.21
13581;BME280;6861;46.170;7.222;2023-02-28T02:55:06;96054.72;;;2.47;50.67
13581;BME280;6861;46.170;7.222;2023-02-28T02:57:42;96054.53;;;2.49;50.60
13581;BME280;6861;46.170;7.222;2023-02-28T03:00:14;96052.69;;;2.56;50.50
13581;BME280;6861;46.170;7.222;2023-02-28T03:02:44;96053.38;;;2.63;50.29
13581;BME280;6861;46.170;7.222;2023-02-28T03:05:19;96050.94;;;2.68;51.49
13581;BME280;6861;46.170;7.222;2023-02-28T03:07:49;96051.31;;;2.72;50.29
13581;BME280;6861;46.170;7.222;2023-02-28T03:10:32;96057.22;;;2.79;50.43
13581;BME280;6861;46.170;7.222;2023-02-28T03:13:11;96055.63;;;2.78;50.87
13581;BME280;6861;46.170;7.222;2023-02-28T03:15:54;96062.97;;;2.81;50.17
13581;BME280;6861;46.170;7.222;2023-02-28T03:18:30;96061.97;;;2.82;50.15
13581;BME280;6861;46.170;7.222;2023-02-28T03:21:06;96060.38;;;2.81;50.59
13581;BME280;6861;46.170;7.222;2023-02-28T03:23:44;96067.50;;;2.85;50.62
13581;BME280;6861;46.170;7.222;2023-02-28T03:26:17;96062.69;;;2.89;50.29
13581;BME280;6861;46.170;7.222;2023-02-28T03:28:54;96062.69;;;2.89;50.42
13581;BME280;6861;46.170;7.222;2023-02-28T03:31:28;96057.31;;;2.90;51.06
13581;BME280;6861;46.170;7.222;2023-02-28T03:34:03;96057.66;;;2.94;50.79
13581;BME280;6861;46.170;7.222;2023-02-28T03:36:38;96057.81;;;2.99;50.45
13581;BME280;6861;46.170;7.222;2023-02-28T03:39:14;96053.81;;;3.03;49.98
13581;BME280;6861;46.170;7.222;2023-02-28T03:41:46;96050.22;;;3.04;49.80
13581;BME280;6861;46.170;7.222;2023-02-28T03:44:18;96055.31;;;3.11;50.35
13581;BME280;6861;46.170;7.222;2023-02-28T03:46:54;96054.81;;;3.20;49.53
13581;BME280;6861;46.170;7.222;2023-02-28T03:49:28;96065.00;;;3.34;49.52
13581;BME280;6861;46.170;7.222;2023-02-28T03:52:02;96062.50;;;3.45;49.38
13581;BME280;6861;46.170;7.222;2023-02-28T03:54:35;96067.56;;;3.52;49.21
13581;BME280;6861;46.170;7.222;2023-02-28T03:57:11;96063.53;;;3.56;49.42
13581;BME280;6861;46.170;7.222;2023-02-28T03:59:46;96066.25;;;3.61;49.29
13581;BME280;6861;46.170;7.222;2023-02-28T04:02:15;96074.22;;;3.59;50.01
13581;BME280;6861;46.170;7.222;2023-02-28T04:04:45;96062.38;;;3.52;50.19
13581;BME280;6861;46.170;7.222;2023-02-28T04:07:16;96069.56;;;3.50;50.08
13581;BME280;6861;46.170;7.222;2023-02-28T04:09:45;96068.88;;;3.43;50.27
13581;BME280;6861;46.170;7.222;2023-02-28T04:12:13;96072.47;;;3.42;49.86
13581;BME280;6861;46.170;7.222;2023-02-28T04:14:41;96060.13;;;3.44;50.20
13581;BME280;6861;46.170;7.222;2023-02-28T04:17:09;96056.53;;;3.45;50.43
13581;BME280;6861;46.170;7.222;2023-02-28T04:19:37;96057.66;;;3.49;50.63
13581;BME280;6861;46.170;7.222;2023-02-28T04:22:07;96053.63;;;3.53;49.73
13581;BME280;6861;46.170;7.222;2023-02-28T04:24:37;96065.91;;;3.57;50.37
13581;BME280;6861;46.170;7.222;2023-02-28T04:27:08;96059.50;;;3.60;49.53
13581;BME280;6861;46.170;7.222;2023-02-28T04:29:37;96058.84;;;3.65;49.51
13581;BME280;6861;46.170;7.222;2023-02-28T04:32:05;96056.34;;;3.58;49.65
13581;BME280;6861;46.170;7.222;2023-02-28T04:34:33;96062.75;;;3.55;50.60
13581;BME280;6861;46.170;7.222;2023-02-28T04:37:01;96058.34;;;3.56;49.74
13581;BME280;6861;46.170;7.222;2023-02-28T04:39:42;96067.25;;;3.60;50.31
13581;BME280;6861;46.170;7.222;2023-02-28T04:42:11;96059.50;;;3.60;50.37
13581;BME280;6861;46.170;7.222;2023-02-28T04:44:39;96055.19;;;3.54;50.30
13581;BME280;6861;46.170;7.222;2023-02-28T04:47:08;96055.28;;;3.47;50.24
13581;BME280;6861;46.170;7.222;2023-02-28T04:49:36;96043.91;;;3.37;50.78
13581;BME280;6861;46.170;7.222;2023-02-28T04:52:04;96056.97;;;3.23;50.93
13581;BME280;6861;46.170;7.222;2023-02-28T04:54:34;96052.50;;;3.12;50.89
13581;BME280;6861;46.170;7.222;2023-02-28T04:57:03;96053.81;;;3.03;51.35
13581;BME280;6861;46.170;7.222;2023-02-28T04:59:32;96051.44;;;3.02;51.40
13581;BME280;6861;46.170;7.222;2023-02-28T05:02:01;96045.53;;;2.94;51.00
13581;BME280;6861;46.170;7.222;2023-02-28T05:04:33;96046.97;;;2.90;50.85
13581;BME280;6861;46.170;7.222;2023-02-28T05:07:02;96041.16;;;2.95;51.57
13581;BME280;6861;46.170;7.222;2023-02-28T05:09:31;96051.16;;;3.10;51.01
13581;BME280;6861;46.170;7.222;2023-02-28T05:11:59;96051.88;;;3.17;51.05
13581;BME280;6861;46.170;7.222;2023-02-28T05:14:29;96059.41;;;3.18;50.73
13581;BME280;6861;46.170;7.222;2023-02-28T05:16:57;96047.06;;;3.20;51.14
13581;BME280;6861;46.170;7.222;2023-02-28T05:19:25;96052.81;;;3.22;50.87
13581;BME280;6861;46.170;7.222;2023-02-28T05:21:54;96050.00;;;3.24;50.86
13581;BME280;6861;46.170;7.222;2023-02-28T05:24:23;96053.38;;;3.24;50.24
13581;BME280;6861;46.170;7.222;2023-02-28T05:26:52;96054.81;;;3.20;50.95
13581;BME280;6861;46.170;7.222;2023-02-28T05:29:21;96055.38;;;3.22;50.26
13581;BME280;6861;46.170;7.222;2023-02-28T05:31:51;96059.56;;;3.23;50.66
13581;BME280;6861;46.170;7.222;2023-02-28T05:34:19;96056.19;;;3.23;50.81
13581;BME280;6861;46.170;7.222;2023-02-28T05:36:48;96061.56;;;3.21;51.00
13581;BME280;6861;46.170;7.222;2023-02-28T05:39:16;96060.56;;;3.22;50.56
13581;BME280;6861;46.170;7.222;2023-02-28T05:41:44;96058.13;;;3.27;50.67
13581;BME280;6861;46.170;7.222;2023-02-28T05:44:12;96068.19;;;3.36;50.26
13581;BME280;6861;46.170;7.222;2023-02-28T05:46:40;96068.88;;;3.43;50.07
13581;BME280;6861;46.170;7.222;2023-02-28T05:49:10;96070.16;;;3.52;49.95
13581;BME280;6861;46.170;7.222;2023-02-28T05:51:38;96077.47;;;3.55;50.55
13581;BME280;6861;46.170;7.222;2023-02-28T05:54:07;96067.78;;;3.50;49.45
13581;BME280;6861;46.170;7.222;2023-02-28T05:56:35;96074.63;;;3.45;50.61
13581;BME280;6861;46.170;7.222;2023-02-28T05:59:05;96069.47;;;3.45;50.74
13581;BME280;6861;46.170;7.222;2023-02-28T06:01:35;96077.75;;;3.47;50.08
13581;BME280;6861;46.170;7.222;2023-02-28T06:04:05;96085.41;;;3.42;50.24
13581;BME280;6861;46.170;7.222;2023-02-28T06:06:36;96081.75;;;3.31;50.47
13581;BME280;6861;46.170;7.222;2023-02-28T06:09:06;96081.25;;;3.22;50.75
13581;BME280;6861;46.170;7.222;2023-02-28T06:11:34;96084.31;;;3.13;50.81
13581;BME280;6861;46.170;7.222;2023-02-28T06:14:03;96081.00;;;3.06;50.34
13581;BME280;6861;46.170;7.222;2023-02-28T06:16:33;96096.75;;;3.04;51.26
13581;BME280;6861;46.170;7.222;2023-02-28T06:19:03;96092.56;;;3.03;50.75
13581;BME280;6861;46.170;7.222;2023-02-28T06:21:31;96085.41;;;3.05;50.45
13581;BME280;6861;46.170;7.222;2023-02-28T06:24:02;96097.91;;;3.08;50.84
13581;BME280;6861;46.170;7.222;2023-02-28T06:26:31;96097.84;;;3.15;50.50
13581;BME280;6861;46.170;7.222;2023-02-28T06:28:59;96101.13;;;3.22;50.84
13581;BME280;6861;46.170;7.222;2023-02-28T06:31:28;96107.41;;;3.33;50.68
13581;BME280;6861;46.170;7.222;2023-02-28T06:33:57;96106.09;;;3.42;50.01
13581;BME280;6861;46.170;7.222;2023-02-28T06:36:25;96111.41;;;3.47;50.56
13581;BME280;6861;46.170;7.222;2023-02-28T06:38:53;96107.94;;;3.53;51.03
13581;BME280;6861;46.170;7.222;2023-02-28T06:41:25;96118.66;;;3.56;50.97
13581;BME280;6861;46.170;7.222;2023-02-28T06:43:55;96119.59;;;3.62;50.66
13581;BME280;6861;46.170;7.222;2023-02-28T06:46:23;96129.06;;;3.68;49.91
13581;BME280;6861;46.170;7.222;2023-02-28T06:48:51;96125.13;;;3.66;50.28
13581;BME280;6861;46.170;7.222;2023-02-28T06:51:20;96139.63;;;3.67;50.91
13581;BME280;6861;46.170;7.222;2023-02-28T06:53:49;96136.63;;;3.70;50.85
13581;BME280;6861;46.170;7.222;2023-02-28T06:56:18;96130.56;;;3.76;50.22
13581;BME280;6861;46.170;7.222;2023-02-28T06:58:49;96131.06;;;3.84;50.51
13581;BME280;6861;46.170;7.222;2023-02-28T07:01:20;96130.78;;;3.92;49.91
13581;BME280;6861;46.170;7.222;2023-02-28T07:03:49;96130.41;;;3.89;50.55
13581;BME280;6861;46.170;7.222;2023-02-28T07:06:19;96133.22;;;3.87;50.74
13581;BME280;6861;46.170;7.222;2023-02-28T07:08:49;96137.53;;;3.93;50.16
13581;BME280;6861;46.170;7.222;2023-02-28T07:11:18;96138.16;;;4.07;50.05
13581;BME280;6861;46.170;7.222;2023-02-28T07:13:48;96132.44;;;4.17;50.04
13581;BME280;6861;46.170;7.222;2023-02-28T07:16:16;96137.19;;;4.20;50.08
13581;BME280;6861;46.170;7.222;2023-02-28T07:18:44;96145.19;;;4.18;49.60
13581;BME280;6861;46.170;7.222;2023-02-28T07:21:12;96145.41;;;4.17;49.62
13581;BME280;6861;46.170;7.222;2023-02-28T07:23:41;96146.28;;;4.11;50.13
13581;BME280;6861;46.170;7.222;2023-02-28T07:26:12;96150.75;;;4.04;50.36
13581;BME280;6861;46.170;7.222;2023-02-28T07:28:41;96152.41;;;3.98;49.76
13581;BME280;6861;46.170;7.222;2023-02-28T07:31:13;96144.16;;;3.89;50.11
13581;BME280;6861;46.170;7.222;2023-02-28T07:33:42;96150.75;;;3.85;50.66
13581;BME280;6861;46.170;7.222;2023-02-28T07:36:12;96149.97;;;3.85;50.12
13581;BME280;6861;46.170;7.222;2023-02-28T07:38:42;96152.78;;;3.83;50.45
13581;BME280;6861;46.170;7.222;2023-02-28T07:41:14;96141.41;;;3.84;50.54
13581;BME280;6861;46.170;7.222;2023-02-28T07:43:43;96141.00;;;3.87;49.72
13581;BME280;6861;46.170;7.222;2023-02-28T07:46:15;96140.56;;;3.90;50.20
13581;BME280;6861;46.170;7.222;2023-02-28T07:48:44;96134.50;;;3.97;49.81
13581;BME280;6861;46.170;7.222;2023-02-28T07:51:12;96138.59;;;4.04;49.73
13581;BME280;6861;46.170;7.222;2023-02-28T07:53:40;96140.88;;;4.12;49.61
13581;BME280;6861;46.170;7.222;2023-02-28T07:56:09;96139.56;;;4.21;49.70
13581;BME280;6861;46.170;7.222;2023-02-28T07:58:37;96138.91;;;4.26;49.49
13581;BME280;6861;46.170;7.222;2023-02-28T08:01:06;96134.06;;;4.30;49.71
13581;BME280;6861;46.170;7.222;2023-02-28T08:03:37;96138.56;;;4.34;49.59
13581;BME280;6861;46.170;7.222;2023-02-28T08:06:08;96125.69;;;5.27;48.85
13581;BME280;6861;46.170;7.222;2023-02-28T08:08:42;96127.09;;;7.61;45.82
13581;BME280;6861;46.170;7.222;2023-02-28T08:11:11;96129.94;;;9.21;42.82
13581;BME280;6861;46.170;7.222;2023-02-28T08:13:39;96123.56;;;9.49;41.79
13581;BME280;6861;46.170;7.222;2023-02-28T08:16:09;96130.84;;;9.42;42.07
13581;BME280;6861;46.170;7.222;2023-02-28T08:18:38;96132.25;;;10.22;40.43
13581;BME280;6861;46.170;7.222;2023-02-28T08:21:07;96128.13;;;10.92;39.36
13581;BME280;6861;46.170;7.222;2023-02-28T08:23:35;96125.09;;;11.80;38.53
13581;BME280;6861;46.170;7.222;2023-02-28T08:26:04;96137.28;;;12.10;37.88
13581;BME280;6861;46.170;7.222;2023-02-28T08:28:33;96130.13;;;12.65;36.68
13581;BME280;6861;46.170;7.222;2023-02-28T08:31:08;96138.25;;;13.60;35.99
13581;BME280;6861;46.170;7.222;2023-02-28T08:33:38;96144.38;;;13.80;34.74
13581;BME280;6861;46.170;7.222;2023-02-28T08:36:07;96140.59;;;14.85;34.29
13581;BME280;6861;46.170;7.222;2023-02-28T08:38:37;96145.16;;;15.30;33.83
13581;BME280;6861;46.170;7.222;2023-02-28T08:41:06;96133.56;;;15.45;33.21
13581;BME280;6861;46.170;7.222;2023-02-28T08:43:36;96137.47;;;16.30;32.51
13581;BME280;6861;46.170;7.222;2023-02-28T08:46:05;96132.44;;;16.78;32.15
13581;BME280;6861;46.170;7.222;2023-02-28T08:48:34;96124.28;;;17.73;30.92
13581;BME280;6861;46.170;7.222;2023-02-28T08:51:07;96121.19;;;18.62;29.56
13581;BME280;6861;46.170;7.222;2023-02-28T08:53:36;96125.25;;;19.67;28.77
13581;BME280;6861;46.170;7.222;2023-02-28T08:56:07;96121.41;;;20.98;27.19
13581;BME280;6861;46.170;7.222;2023-02-28T08:58:35;96118.94;;;22.44;25.84
13581;BME280;6861;46.170;7.222;2023-02-28T09:01:07;96109.78;;;23.88;23.89
13581;BME280;6861;46.170;7.222;2023-02-28T09:03:36;96113.91;;;25.10;23.09
13581;BME280;6861;46.170;7.222;2023-02-28T09:06:06;96101.28;;;26.28;21.75
13581;BME280;6861;46.170;7.222;2023-02-28T09:08:34;96107.09;;;27.27;20.43
13581;BME280;6861;46.170;7.222;2023-02-28T09:11:03;96097.84;;;28.13;20.26
13581;BME280;6861;46.170;7.222;2023-02-28T09:13:32;96093.63;;;28.88;19.35
13581;BME280;6861;46.170;7.222;2023-02-28T09:16:02;96099.16;;;29.49;18.42
13581;BME280;6861;46.170;7.222;2023-02-28T09:18:30;96097.66;;;30.05;17.94
13581;BME280;6861;46.170;7.222;2023-02-28T09:20:59;96093.69;;;30.41;17.32
13581;BME280;6861;46.170;7.222;2023-02-28T09:23:28;96089.00;;;30.70;16.79
13581;BME280;6861;46.170;7.222;2023-02-28T09:25:56;96091.25;;;30.86;16.00
13581;BME280;6861;46.170;7.222;2023-02-28T09:28:25;96088.94;;;30.84;15.55
13581;BME280;6861;46.170;7.222;2023-02-28T09:30:54;96089.78;;;30.71;15.38
13581;BME280;6861;46.170;7.222;2023-02-28T09:33:25;96092.06;;;30.76;15.45
13581;BME280;6861;46.170;7.222;2023-02-28T09:35:58;96080.50;;;30.75;14.59
13581;BME280;6861;46.170;7.222;2023-02-28T09:38:28;96075.75;;;31.01;14.46
13581;BME280;6861;46.170;7.222;2023-02-28T09:40:58;96081.81;;;31.22;14.34
13581;BME280;6861;46.170;7.222;2023-02-28T09:43:31;96077.78;;;31.45;14.25
13581;BME280;6861;46.170;7.222;2023-02-28T09:46:07;96073.19;;;31.42;13.57
13581;BME280;6861;46.170;7.222;2023-02-28T09:48:40;96078.69;;;31.27;14.28
13581;BME280;6861;46.170;7.222;2023-02-28T09:51:16;96073.94;;;31.46;13.78
13581;BME280;6861;46.170;7.222;2023-02-28T09:53:53;96068.34;;;31.67;13.73
13581;BME280;6861;46.170;7.222;2023-02-28T09:56:31;96069.38;;;31.87;13.47
13581;BME280;6861;46.170;7.222;2023-02-28T09:59:02;96074.00;;;32.28;13.31
13581;BME280;6861;46.170;7.222;2023-02-28T10:01:37;96066.75;;;32.55;13.16
13581;BME280;6861;46.170;7.222;2023-02-28T10:04:12;96063.91;;;32.66;12.79
13581;BME280;6861;46.170;7.222;2023-02-28T10:06:46;96064.59;;;32.74;12.21
13581;BME280;6861;46.170;7.222;2023-02-28T10:09:21;96059.47;;;32.83;11.77
13581;BME280;6861;46.170;7.222;2023-02-28T10:11:52;96057.09;;;33.12;11.81
13581;BME280;6861;46.170;7.222;2023-02-28T10:14:24;96054.00;;;33.13;12.04
13581;BME280;6861;46.170;7.222;2023-02-28T10:16:56;96050.66;;;33.02;12.10
13581;BME280;6861;46.170;7.222;2023-02-28T10:19:29;96053.78;;;33.01;11.41
13581;BME280;6861;46.170;7.222;2023-02-28T10:22:01;96047.00;;;32.89;11.93
13581;BME280;6861;46.170;7.222;2023-02-28T10:24:35;96047.28;;;32.64;11.99
13581;BME280;6861;46.170;7.222;2023-02-28T10:27:14;96049.47;;;33.03;11.48
13581;BME280;6861;46.170;7.222;2023-02-28T10:29:44;96033.78;;;33.45;11.70
13581;BME280;6861;46.170;7.222;2023-02-28T10:32:15;96047.38;;;33.68;11.36
13581;BME280;6861;46.170;7.222;2023-02-28T10:34:44;96051.63;;;33.69;11.22
13581;BME280;6861;46.170;7.222;2023-02-28T10:37:13;96047.38;;;33.68;10.94
13581;BME280;6861;46.170;7.222;2023-02-28T10:39:45;96044.34;;;33.63;11.29
13581;BME280;6861;46.170;7.222;2023-02-28T10:42:22;96040.50;;;33.37;11.25
13581;BME280;6861;46.170;7.222;2023-02-28T10:45:11;96041.03;;;33.24;11.11
13581;BME280;6861;46.170;7.222;2023-02-28T10:47:49;96034.50;;;32.95;11.33
13581;BME280;6861;46.170;7.222;2023-02-28T10:50:35;96041.88;;;33.21;11.13
13581;BME280;6861;46.170;7.222;2023-02-28T10:53:16;96047.72;;;33.70;11.37
13581;BME280;6861;46.170;7.222;2023-02-28T10:55:56;96031.91;;;33.65;11.65
13581;BME280;6861;46.170;7.222;2023-02-28T10:58:27;96040.56;;;34.03;10.97
13581;BME280;6861;46.170;7.222;2023-02-28T11:00:56;96029.53;;;35.26;10.97
13581;BME280;6861;46.170;7.222;2023-02-28T11:03:30;96027.28;;;36.72;10.47
13581;BME280;6861;46.170;7.222;2023-02-28T11:06:05;96026.66;;;38.70;9.76
13581;BME280;6861;46.170;7.222;2023-02-28T11:08:34;96017.75;;;39.86;9.33
13581;BME280;6861;46.170;7.222;2023-02-28T11:11:13;96011.19;;;40.29;8.60
13581;BME280;6861;46.170;7.222;2023-02-28T11:13:45;96003.75;;;40.21;8.42
13581;BME280;6861;46.170;7.222;2023-02-28T11:16:15;96005.47;;;39.32;8.86
13581;BME280;6861;46.170;7.222;2023-02-28T11:18:48;96001.78;;;38.12;9.41
13581;BME280;6861;46.170;7.222;2023-02-28T11:21:21;96006.44;;;37.42;9.83
13581;BME280;6861;46.170;7.222;2023-02-28T11:23:52;96004.69;;;35.56;10.41
13581;BME280;6861;46.170;7.222;2023-02-28T11:26:41;96008.66;;;33.64;11.40
13581;BME280;6861;46.170;7.222;2023-02-28T11:29:16;96002.06;;;32.27;12.27
13581;BME280;6861;46.170;7.222;2023-02-28T11:32:02;95995.00;;;30.33;13.29
13581;BME280;6861;46.170;7.222;2023-02-28T11:34:32;95987.81;;;28.98;14.16
13581;BME280;6861;46.170;7.222;2023-02-28T11:37:01;95977.88;;;28.05;15.24
13581;BME280;6861;46.170;7.222;2023-02-28T11:39:32;95969.34;;;27.92;15.39
13581;BME280;6861;46.170;7.222;2023-02-28T11:42:41;95971.06;;;27.08;15.53
13581;BME280;6861;46.170;7.222;2023-02-28T11:45:18;95971.00;;;25.22;17.10
13581;BME280;6861;46.170;7.222;2023-02-28T11:47:58;95969.78;;;23.10;18.60
13581;BME280;6861;46.170;7.222;2023-02-28T11:50:45;95977.16;;;21.37;20.32
13581;BME280;6861;46.170;7.222;2023-02-28T11:53:21;95977.34;;;20.09;21.06
13581;BME280;6861;46.170;7.222;2023-02-28T11:55:57;95966.50;;;18.84;22.08
13581;BME280;6861;46.170;7.222;2023-02-28T11:58:44;95974.38;;;17.85;23.33
13581;BME280;6861;46.170;7.222;2023-02-28T12:01:36;95971.84;;;17.06;24.34
13581;BME280;6861;46.170;7.222;2023-02-28T12:04:20;95972.94;;;16.52;24.99
13581;BME280;6861;46.170;7.222;2023-02-28T12:06:57;95976.00;;;16.00;25.59
13581;BME280;6861;46.170;7.222;2023-02-28T12:09:47;95971.81;;;15.50;26.09
13581;BME280;6861;46.170;7.222;2023-02-28T12:12:29;95972.59;;;15.23;26.48
13581;BME280;6861;46.170;7.222;2023-02-28T12:15:19;95965.97;;;15.12;26.52
13581;BME280;6861;46.170;7.222;2023-02-28T12:20:46;95970.44;;;14.70;27.23
13581;BME280;6861;46.170;7.222;2023-02-28T12:23:33;95959.25;;;14.46;27.17
13581;BME280;6861;46.170;7.222;2023-02-28T12:26:14;95961.19;;;14.21;28.35
13581;BME280;6861;46.170;7.222;2023-02-28T12:28:50;95957.72;;;14.07;28.09
13581;BME280;6861;46.170;7.222;2023-02-28T12:31:24;95953.97;;;13.94;28.63
13581;BME280;6861;46.170;7.222;2023-02-28T12:33:59;95963.69;;;13.80;28.55
13581;BME280;6861;46.170;7.222;2023-02-28T12:36:29;95947.75;;;13.71;29.08
13581;BME280;6861;46.170;7.222;2023-02-28T12:39:01;95951.94;;;13.72;29.10
13581;BME280;6861;46.170;7.222;2023-02-28T12:41:36;95946.13;;;13.75;29.39
13581;BME280;6861;46.170;7.222;2023-02-28T12:44:09;95940.28;;;13.78;29.34
13581;BME280;6861;46.170;7.222;2023-02-28T12:46:43;95941.84;;;13.80;29.23
13581;BME280;6861;46.170;7.222;2023-02-28T12:49:16;95939.72;;;13.82;29.34
13581;BME280;6861;46.170;7.222;2023-02-28T12:51:45;95934.56;;;13.90;29.56
13581;BME280;6861;46.170;7.222;2023-02-28T12:54:21;95933.50;;;13.91;28.86
13581;BME280;6861;46.170;7.222;2023-02-28T12:56:56;95936.25;;;13.86;29.20
13581;BME280;6861;46.170;7.222;2023-02-28T12:59:36;95943.63;;;13.84;28.90
13581;BME280;6861;46.170;7.222;2023-02-28T13:05:50;95945.13;;;13.71;30.05
13581;BME280;6861;46.170;7.222;2023-02-28T13:09:01;95939.44;;;13.64;29.60
13581;BME280;6861;46.170;7.222;2023-02-28T13:11:33;95942.06;;;13.64;29.91
13581;BME280;6861;46.170;7.222;2023-02-28T13:14:03;95936.31;;;13.62;30.10
13581;BME280;6861;46.170;7.222;2023-02-28T13:16:58;95939.44;;;13.64;29.65
13581;BME280;6861;46.170;7.222;2023-02-28T13:19:28;95940.50;;;13.63;29.71
13581;BME280;6861;46.170;7.222;2023-02-28T13:21:59;95943.97;;;13.59;30.67
13581;BME280;6861;46.170;7.222;2023-02-28T13:24:41;95942.13;;;13.59;30.97
13581;BME280;6861;46.170;7.222;2023-02-28T13:27:34;95941.34;;;13.59;31.02
13581;BME280;6861;46.170;7.222;2023-02-28T13:33:23;95935.25;;;13.63;31.03
13581;BME280;6861;46.170;7.222;2023-02-28T13:36:10;95941.13;;;13.55;30.82
13581;BME280;6861;46.170;7.222;2023-02-28T13:38:41;95945.91;;;13.53;30.85
13581;BME280;6861;46.170;7.222;2023-02-28T13:41:41;95934.44;;;13.44;30.62
13581;BME280;6861;46.170;7.222;2023-02-28T13:44:11;95939.63;;;13.30;30.97
13581;BME280;6861;46.170;7.222;2023-02-28T13:49:46;95944.25;;;13.14;30.88
13581;BME280;6861;46.170;7.222;2023-02-28T13:52:18;95941.94;;;13.08;31.10
13581;BME280;6861;46.170;7.222;2023-02-28T13:54:57;95949.59;;;13.04;31.11
13581;BME280;6861;46.170;7.222;2023-02-28T13:57:42;95950.47;;;13.00;31.10
13581;BME280;6861;46.170;7.222;2023-02-28T14:00:27;95949.25;;;12.92;32.24
13581;BME280;6861;46.170;7.222;2023-02-28T14:03:10;95946.16;;;12.85;32.33
13581;BME280;6861;46.170;7.222;2023-02-28T14:05:40;95956.69;;;12.85;31.39
13581;BME280;6861;46.170;7.222;2023-02-28T14:08:13;95961.69;;;12.82;31.69
13581;BME280;6861;46.170;7.222;2023-02-28T14:10:46;95956.50;;;12.76;31.72
13581;BME280;6861;46.170;7.222;2023-02-28T14:13:37;95950.56;;;12.66;32.18
13581;BME280;6861;46.170;7.222;2023-02-28T14:16:13;95965.84;;;12.59;32.91
13581;BME280;6861;46.170;7.222;2023-02-28T14:18:48;95954.91;;;12.52;33.32